地図

経路データ

SID SEASON NUMBER BASIN SUBBASIN NAME ISO_TIME NATURE LAT LON WMO_WIND WMO_PRES WMO_AGENCY TRACK_TYPE DIST2LAND LANDFALL IFLAG USA_AGENCY USA_ATCF_ID USA_LAT USA_LON USA_RECORD USA_STATUS USA_WIND USA_PRES USA_SSHS USA_R34_NE USA_R34_SE USA_R34_SW USA_R34_NW USA_R50_NE USA_R50_SE USA_R50_SW USA_R50_NW USA_R64_NE USA_R64_SE USA_R64_SW USA_R64_NW USA_POCI USA_ROCI USA_RMW USA_EYE TOKYO_LAT TOKYO_LON TOKYO_GRADE TOKYO_WIND TOKYO_PRES TOKYO_R50_DIR TOKYO_R50_LONG TOKYO_R50_SHORT TOKYO_R30_DIR TOKYO_R30_LONG TOKYO_R30_SHORT TOKYO_LAND CMA_LAT CMA_LON CMA_CAT CMA_WIND CMA_PRES HKO_LAT HKO_LON HKO_CAT HKO_WIND HKO_PRES NEWDELHI_LAT NEWDELHI_LON NEWDELHI_GRADE NEWDELHI_WIND NEWDELHI_PRES NEWDELHI_CI NEWDELHI_DP NEWDELHI_POCI REUNION_LAT REUNION_LON REUNION_TYPE REUNION_WIND REUNION_PRES REUNION_TNUM REUNION_CI REUNION_RMW REUNION_R34_NE REUNION_R34_SE REUNION_R34_SW REUNION_R34_NW REUNION_R50_NE REUNION_R50_SE REUNION_R50_SW REUNION_R50_NW REUNION_R64_NE REUNION_R64_SE REUNION_R64_SW REUNION_R64_NW BOM_LAT BOM_LON BOM_TYPE BOM_WIND BOM_PRES BOM_TNUM BOM_CI BOM_RMW BOM_R34_NE BOM_R34_SE BOM_R34_SW BOM_R34_NW BOM_R50_NE BOM_R50_SE BOM_R50_SW BOM_R50_NW BOM_R64_NE BOM_R64_SE BOM_R64_SW BOM_R64_NW BOM_ROCI BOM_POCI BOM_EYE BOM_POS_METHOD BOM_PRES_METHOD NADI_LAT NADI_LON NADI_CAT NADI_WIND NADI_PRES WELLINGTON_LAT WELLINGTON_LON WELLINGTON_WIND WELLINGTON_PRES DS824_LAT DS824_LON DS824_STAGE DS824_WIND DS824_PRES TD9636_LAT TD9636_LON TD9636_STAGE TD9636_WIND TD9636_PRES TD9635_LAT TD9635_LON TD9635_WIND TD9635_PRES TD9635_ROCI NEUMANN_LAT NEUMANN_LON NEUMANN_CLASS NEUMANN_WIND NEUMANN_PRES MLC_LAT MLC_LON MLC_CLASS MLC_WIND MLC_PRES USA_GUST BOM_GUST BOM_GUST_PER REUNION_GUST REUNION_GUST_PER USA_SEAHGT USA_SEARAD_NE USA_SEARAD_SE USA_SEARAD_SW USA_SEARAD_NW STORM_SPEED STORM_DIR
1929325N08144 1929 72 WP MM NOT_NAMED 1929-11-21 10:00:00 NR 8.00000 144.200 main 1162 1162 __________O___ -1 8.00000 144.200 7 9 309
1929325N08144 1929 72 WP MM NOT_NAMED 1929-11-21 12:00:00 NR 8.19112 143.957 main 1189 1192 __________P___ -1 8.19112 143.957 7 9 308
1929325N08144 1929 72 WP MM NOT_NAMED 1929-11-21 15:00:00 NR 8.47475 143.597 main 1233 1233 __________P___ -1 8.47475 143.597 7 9 308
1929325N08144 1929 72 WP MM NOT_NAMED 1929-11-21 18:00:00 NR 8.75089 143.245 main 1278 1278 __________P___ -1 8.75089 143.245 7 9 308
1929325N08144 1929 72 WP MM NOT_NAMED 1929-11-21 21:00:00 NR 9.01524 142.908 main 1296 1296 __________P___ -1 9.01524 142.908 7 8 308
1929325N08144 1929 72 WP MM NOT_NAMED 1929-11-21 22:00:00 NR 9.10000 142.800 main 1303 1298 __________O___ -1 9.10000 142.800 7 8 308
1929325N08144 1929 72 WP MM NOT_NAMED 1929-11-22 00:00:00 NR 9.26439 142.591 main 1315 1311 __________P___ -1 9.26439 142.591 7 8 309
1929325N08144 1929 72 WP MM NOT_NAMED 1929-11-22 03:00:00 NR 9.50457 142.290 main 1324 1320 __________P___ -1 9.50457 142.290 7 8 310
1929325N08144 1929 72 WP MM NOT_NAMED 1929-11-22 06:00:00 NR 9.74820 141.997 main 1334 1341 __________P___ -1 9.74820 141.997 7 8 311
1929325N08144 1929 72 WP MM NOT_NAMED 1929-11-22 09:00:00 NR 10.0078 141.701 main 1356 1356 __________P___ -1 10.0078 141.701 7 8 312
1929325N08144 1929 72 WP MM NOT_NAMED 1929-11-22 10:00:00 NR 10.1000 141.600 main 1364 1361 __________O___ -1 10.1000 141.600 7 9 313
1929325N08144 1929 72 WP MM NOT_NAMED 1929-11-22 12:00:00 NR 10.3022 141.379 main 1379 1376 __________P___ -1 10.3022 141.379 7 9 314
1929325N08144 1929 72 WP MM NOT_NAMED 1929-11-22 15:00:00 NR 10.6245 141.040 main 1396 1396 __________P___ -1 10.6245 141.040 7 9 315
1929325N08144 1929 72 WP MM NOT_NAMED 1929-11-22 18:00:00 NR 10.9584 140.707 main 1424 1420 __________P___ -1 10.9584 140.707 7 9 317
1929325N08144 1929 72 WP MM NOT_NAMED 1929-11-22 21:00:00 NR 11.2914 140.396 main 1444 1440 __________P___ -1 11.2914 140.396 7 9 318
1929325N08144 1929 72 WP MM NOT_NAMED 1929-11-22 22:00:00 NR 11.4000 140.300 main 1450 1450 __________O___ -1 11.4000 140.300 7 8 317
1929325N08144 1929 72 WP MM NOT_NAMED 1929-11-23 00:00:00 NR 11.5925 140.111 main 1464 1464 __________P___ -1 11.5925 140.111 7 8 317
1929325N08144 1929 72 WP MM NOT_NAMED 1929-11-23 03:00:00 NR 11.8748 139.853 main 1489 1486 __________P___ -1 11.8748 139.853 7 7 321
1929325N08144 1929 72 WP MM NOT_NAMED 1929-11-23 06:00:00 NR 12.1659 139.631 main 1502 1488 __________P___ -1 12.1659 139.631 7 7 327
1929325N08144 1929 72 WP MM NOT_NAMED 1929-11-23 09:00:00 NR 12.4845 139.450 main 1488 1488 __________P___ -1 12.4845 139.450 7 7 333
1929325N08144 1929 72 WP MM NOT_NAMED 1929-11-23 10:00:00 NR 12.6000 139.400 main 1491 1482 __________O___ -1 12.6000 139.400 7 8 340
1929325N08144 1929 72 WP MM NOT_NAMED 1929-11-23 12:00:00 NR 12.8757 139.303 main 1484 1476 __________P___ -1 12.8757 139.303 7 9 344
1929325N08144 1929 72 WP MM NOT_NAMED 1929-11-23 15:00:00 NR 13.3213 139.194 main 1479 1474 __________P___ -1 13.3213 139.194 7 9 349
1929325N08144 1929 72 WP MM NOT_NAMED 1929-11-23 18:00:00 NR 13.7693 139.128 main 1478 1478 __________P___ -1 13.7693 139.128 7 9 354
1929325N08144 1929 72 WP MM NOT_NAMED 1929-11-23 21:00:00 NR 14.1790 139.101 main 1487 1487 __________P___ -1 14.1790 139.101 7 8 359
1929325N08144 1929 72 WP MM NOT_NAMED 1929-11-23 22:00:00 NR 14.3000 139.100 main 1490 1490 __________O___ -1 14.3000 139.100 7 6 360
1929325N08144 1929 72 WP MM NOT_NAMED 1929-11-24 00:00:00 NR 14.4930 139.097 main 1494 1494 __________P___ -1 14.4930 139.097 7 5 0
1929325N08144 1929 72 WP MM NOT_NAMED 1929-11-24 03:00:00 NR 14.7320 139.124 main 1497 1497 __________P___ -1 14.7320 139.124 7 5 10
1929325N08144 1929 72 WP MM NOT_NAMED 1929-11-24 06:00:00 NR 14.9355 139.182 main 1511 1511 __________P___ -1 14.9355 139.182 7 4 19
1929325N08144 1929 72 WP MM NOT_NAMED 1929-11-24 09:00:00 NR 15.1315 139.267 main 1526 1526 __________P___ -1 15.1315 139.267 7 4 23
1929325N08144 1929 72 WP MM NOT_NAMED 1929-11-24 10:00:00 NR 15.2000 139.300 main 1528 1528 __________O___ -1 15.2000 139.300 7 5 21
1929325N08144 1929 72 WP MM NOT_NAMED 1929-11-24 12:00:00 NR 15.3531 139.356 main 1543 1543 __________P___ -1 15.3531 139.356 7 5 22
1929325N08144 1929 72 WP MM NOT_NAMED 1929-11-24 15:00:00 NR 15.5888 139.458 main 1558 1558 __________P___ -1 15.5888 139.458 7 5 24
1929325N08144 1929 72 WP MM NOT_NAMED 1929-11-24 18:00:00 NR 15.8374 139.586 main 1574 1576 __________P___ -1 15.8374 139.586 7 6 28
1929325N08144 1929 72 WP MM NOT_NAMED 1929-11-24 21:00:00 NR 16.1053 139.741 main 1592 1602 __________P___ -1 16.1053 139.741 7 6 30
1929325N08144 1929 72 WP MM NOT_NAMED 1929-11-24 22:00:00 NR 16.2000 139.800 main 1605 1605 __________O___ -1 16.2000 139.800 7 7 30
1929325N08144 1929 72 WP MM NOT_NAMED 1929-11-25 00:00:00 NR 16.4022 139.922 main 1621 1621 __________P___ -1 16.4022 139.922 7 7 31
1929325N08144 1929 72 WP MM NOT_NAMED 1929-11-25 03:00:00 NR 16.7244 140.130 main 1650 1650 __________P___ -1 16.7244 140.130 7 8 33
1929325N08144 1929 72 WP MM NOT_NAMED 1929-11-25 06:00:00 NR 17.0582 140.363 main 1694 1694 __________P___ -1 17.0582 140.363 7 8 35
1929325N08144 1929 72 WP MM NOT_NAMED 1929-11-25 09:00:00 NR 17.3913 140.613 main 1724 1724 __________P___ -1 17.3913 140.613 7 8 36
1929325N08144 1929 72 WP MM NOT_NAMED 1929-11-25 10:00:00 NR 17.5000 140.700 main 1737 1737 __________O___ -1 17.5000 140.700 7 8 38
1929325N08144 1929 72 WP MM NOT_NAMED 1929-11-25 12:00:00 NR 17.7120 140.876 main 1764 1764 __________P___ -1 17.7120 140.876 7 8 39
1929325N08144 1929 72 WP MM NOT_NAMED 1929-11-25 15:00:00 NR 18.0182 141.148 main 1786 1775 __________P___ -1 18.0182 141.148 7 8 41
1929325N08144 1929 72 WP MM NOT_NAMED 1929-11-25 18:00:00 NR 18.3141 141.425 main 1775 1754 __________P___ -1 18.3141 141.425 7 8 42
1929325N08144 1929 72 WP MM NOT_NAMED 1929-11-25 21:00:00 NR 18.6040 141.706 main 1754 1746 __________P___ -1 18.6040 141.706 7 8 43
1929325N08144 1929 72 WP MM NOT_NAMED 1929-11-25 22:00:00 NR 18.7000 141.800 main 1746 __________O___ -1 18.7000 141.800 7 8 43

デジタル台風データ・検索

IBTrACS Databaseについて

本データベースは、米国NOAAが公開する1842年以降の世界の熱帯低気圧のベストトラックデータアーカイブInternational Best Track Archive for Climate Stewardship (IBTrACS)を、ウェブで閲覧しやすい形式に変換したものです。

最終更新日:2021-10-08